Portada
METAR-TAF:

METAR-TAF

Aeropuertos :

Cognac, Francia

latitud: 45-40N, longitud: 000-19W, altitud: 30 m

Observación

El informe se hizo hace 38 minutos, a las 07:30 UTC
Viento 3 kt del oeste, variando entre suroeste y noroeste
Temperatura 12°C
Humedad 76%
Presión 1024 hPa
Visibilidad 10 km o más
sin nubes por debajo de 1500 m y sin presencia de cumulonimbus.

METAR: LFBG 280730Z AUTO 28003KT 230V310 CAVOK 12/08 Q1024 NOSIG

Hora: 10:08 (08:08 UTC)

Pronóstico

El informe se hizo hace 3 horas y 23 minutos, a las 04:45 UTC
Pronóstico válido del 28 a las 04 UTC al 29 a las 03 UTC
Viento 5 kt del este-sureste
Visibilidad 10 km o más
sin nubes por debajo de 1500 m y sin presencia de cumulonimbus.
Evolucionando progresivamente
del 28 a las 08 UTC al 28 a las 10 UTC
Viento 10 kt del oeste-suroeste

TAF: LFBG 280445Z 2804/2903 12005KT CAVOK BECMG 2808/2810 24010KT

Observaciones y pronósticos meteorológicos de más de 4000 aeropuertos (mensajes METAR y TAF).

Los puntos amarillos y rojos representan las estaciones disponibles.

Ponga el ratón en el punto deseado para ver el nombre de la estación.

Haga clic para ver las observaciones y los pronósticos meteorológicos.

Para cambiar el mapa : haga clic en los botones verdes con una cruz de color negro para hacer un zoom, en el botón verde con un guión para alejar o en las flechas verdes para mapas adyacentes.


METAR-TAF: